createdAt,value
2023-02-11T00:02:15.721Z,6.57
2023-02-11T00:04:44.890Z,6.63
2023-02-11T00:07:14.163Z,6.69
2023-02-11T00:09:44.467Z,6.66
2023-02-11T00:12:35.214Z,6.66
2023-02-11T00:15:17.394Z,6.59
2023-02-11T00:17:53.675Z,6.51
2023-02-11T00:20:21.665Z,6.61
2023-02-11T00:22:49.631Z,6.63
2023-02-11T00:25:17.487Z,6.57
2023-02-11T00:27:46.455Z,6.56
2023-02-11T00:30:16.777Z,6.56
2023-02-11T00:32:44.999Z,6.51
2023-02-11T00:35:18.438Z,6.58
2023-02-11T00:37:50.298Z,6.57
2023-02-11T00:40:18.778Z,6.55
2023-02-11T00:46:19.988Z,6.48
2023-02-11T00:48:48.130Z,6.44
2023-02-11T00:51:20.867Z,6.25
2023-02-11T00:53:48.870Z,6.37
2023-02-11T00:56:17.323Z,6.35
2023-02-11T00:58:56.859Z,6.31
2023-02-11T01:01:38.033Z,6.20
2023-02-11T01:04:06.945Z,6.15
2023-02-11T01:06:45.645Z,5.96
2023-02-11T01:09:17.073Z,5.88
2023-02-11T01:11:50.565Z,5.85
2023-02-11T01:14:19.939Z,5.75
2023-02-11T01:16:49.320Z,5.93
2023-02-11T01:19:22.650Z,5.96
2023-02-11T01:21:52.178Z,6.00
2023-02-11T01:24:20.300Z,6.00
2023-02-11T01:26:49.704Z,6.00
2023-02-11T01:29:18.142Z,6.11
2023-02-11T01:31:46.091Z,6.06
2023-02-11T01:34:13.999Z,5.98
2023-02-11T01:36:47.827Z,5.86
2023-02-11T01:39:17.686Z,5.91
2023-02-11T01:41:45.590Z,5.74
2023-02-11T01:44:29.519Z,5.68
2023-02-11T01:46:57.859Z,5.61
2023-02-11T01:49:29.674Z,5.66
2023-02-11T01:52:01.962Z,5.56
2023-02-11T01:54:51.488Z,5.65
2023-02-11T01:57:25.079Z,5.73
2023-02-11T02:00:16.030Z,5.78
2023-02-11T02:02:54.239Z,5.72
2023-02-11T02:05:31.932Z,5.82
2023-02-11T02:08:09.004Z,5.88
2023-02-11T02:10:44.395Z,5.90
2023-02-11T02:13:17.772Z,5.89
2023-02-11T02:15:51.225Z,6.00
2023-02-11T02:18:37.100Z,6.02
2023-02-11T02:21:48.600Z,6.02
2023-02-11T02:24:56.668Z,6.04
2023-02-11T02:27:40.294Z,6.06
2023-02-11T02:30:44.402Z,6.13
2023-02-11T02:33:26.281Z,6.01
2023-02-11T02:36:03.998Z,6.17
2023-02-11T02:38:47.677Z,6.12
2023-02-11T02:41:19.882Z,6.28
2023-02-11T02:43:52.151Z,6.34
2023-02-11T02:46:25.930Z,6.35
2023-02-11T02:48:57.630Z,6.29
2023-02-11T02:52:00.066Z,6.39
2023-02-11T02:54:51.145Z,6.42
2023-02-11T02:57:31.872Z,6.47
2023-02-11T03:00:11.951Z,6.36
2023-02-11T03:02:53.097Z,6.39
2023-02-11T03:05:32.151Z,6.42
2023-02-11T03:08:11.486Z,6.44
2023-02-11T03:10:43.834Z,6.37
2023-02-11T03:13:12.620Z,6.32
2023-02-11T03:15:49.444Z,6.45
2023-02-11T03:18:30.710Z,6.37
2023-02-11T03:21:16.386Z,6.35
2023-02-11T03:23:55.226Z,6.40
2023-02-11T03:26:27.428Z,6.40
2023-02-11T03:29:00.597Z,6.51
2023-02-11T03:31:32.339Z,6.40
2023-02-11T03:34:05.508Z,6.48
2023-02-11T03:36:49.343Z,6.50
2023-02-11T03:39:22.039Z,6.43
2023-02-11T03:42:03.903Z,6.48
2023-02-11T03:44:38.587Z,6.53
2023-02-11T03:47:12.865Z,6.51
2023-02-11T03:49:45.945Z,6.52
2023-02-11T03:52:17.590Z,6.51
2023-02-11T03:54:50.077Z,6.47
2023-02-11T03:57:17.999Z,6.51
2023-02-11T03:59:54.054Z,6.49
2023-02-11T04:02:23.423Z,6.52
2023-02-11T04:04:51.370Z,6.52
2023-02-11T04:07:20.685Z,6.52
2023-02-11T04:09:48.515Z,6.47
2023-02-11T04:12:16.525Z,6.53
2023-02-11T04:14:50.060Z,6.54
2023-02-11T04:17:18.132Z,6.58
2023-02-11T04:19:46.226Z,6.52
2023-02-11T04:22:18.619Z,6.56
2023-02-11T04:24:50.092Z,6.54
2023-02-11T04:27:18.889Z,6.52
2023-02-11T04:29:50.970Z,6.51
2023-02-11T04:32:19.108Z,6.50
2023-02-11T04:34:47.157Z,6.41
2023-02-11T04:37:22.003Z,6.50
2023-02-11T04:40:02.710Z,6.47
2023-02-11T04:42:30.767Z,6.41
2023-02-11T04:45:15.026Z,6.44
2023-02-11T04:47:43.040Z,6.38
2023-02-11T04:50:13.865Z,6.50
2023-02-11T04:52:41.879Z,6.52
2023-02-11T04:55:11.191Z,6.53
2023-02-11T04:57:39.403Z,6.53
2023-02-11T05:00:09.937Z,6.45
2023-02-11T05:02:39.956Z,6.56
2023-02-11T05:05:08.378Z,6.52
2023-02-11T05:07:36.359Z,6.52
2023-02-11T05:10:05.244Z,6.37
2023-02-11T05:12:34.901Z,6.47
2023-02-11T05:15:02.924Z,6.46
2023-02-11T05:17:35.148Z,6.43
2023-02-11T05:20:08.799Z,6.36
2023-02-11T05:22:36.705Z,6.39
2023-02-11T05:25:06.611Z,6.38
2023-02-11T05:27:36.168Z,6.38
2023-02-11T05:30:05.292Z,6.34
2023-02-11T05:32:33.486Z,6.30
2023-02-11T05:35:02.630Z,6.29
2023-02-11T05:37:30.519Z,6.35
2023-02-11T05:39:58.517Z,6.35
2023-02-11T05:42:26.468Z,6.31
2023-02-11T05:44:55.798Z,6.34
2023-02-11T05:47:23.859Z,6.33
2023-02-11T05:50:03.793Z,6.32
2023-02-11T05:52:33.583Z,6.36
2023-02-11T05:55:02.945Z,6.34
2023-02-11T05:57:33.184Z,6.35
2023-02-11T06:00:02.492Z,6.42
2023-02-11T06:02:30.761Z,6.39
2023-02-11T06:05:00.105Z,6.37
2023-02-11T06:07:27.999Z,6.38
2023-02-11T06:09:55.849Z,6.38
2023-02-11T06:12:23.716Z,6.38
2023-02-11T06:14:51.587Z,6.36
2023-02-11T06:17:23.953Z,6.35
2023-02-11T06:19:51.988Z,6.42
2023-02-11T06:22:34.954Z,6.39
2023-02-11T06:25:04.126Z,6.34
2023-02-11T06:27:33.470Z,6.32
2023-02-11T06:30:01.367Z,6.32
2023-02-11T06:32:46.511Z,6.34
2023-02-11T06:35:16.165Z,6.34
2023-02-11T06:37:49.613Z,6.30
2023-02-11T06:40:17.637Z,6.40
2023-02-11T06:42:45.627Z,6.36
2023-02-11T06:45:14.099Z,6.31
2023-02-11T06:47:44.602Z,6.35
2023-02-11T06:50:16.781Z,6.36
2023-02-11T06:52:50.184Z,6.39
2023-02-11T06:55:21.093Z,6.35
2023-02-11T06:57:50.457Z,6.31
2023-02-11T07:00:29.261Z,6.36
2023-02-11T07:03:02.984Z,6.16
2023-02-11T07:05:41.683Z,6.40
2023-02-11T07:08:15.511Z,6.44
2023-02-11T07:10:49.023Z,6.42
2023-02-11T07:13:29.352Z,6.33
2023-02-11T07:16:11.414Z,6.30
2023-02-11T07:18:55.535Z,6.30
2023-02-11T07:21:24.857Z,6.43
2023-02-11T07:23:56.074Z,6.36
2023-02-11T07:26:25.845Z,6.39
2023-02-11T07:29:00.682Z,6.44
2023-02-11T07:31:30.532Z,6.47
2023-02-11T07:34:13.214Z,6.44
2023-02-11T07:40:00.287Z,6.39
2023-02-11T07:44:06.120Z,6.52
2023-02-11T07:45:28.660Z,6.52
2023-02-11T07:48:03.549Z,6.55
2023-02-11T07:50:42.099Z,6.68
2023-02-11T07:53:13.545Z,6.50
2023-02-11T07:55:54.216Z,6.73
2023-02-11T07:58:37.231Z,6.74
2023-02-11T08:01:27.289Z,6.50
2023-02-11T08:04:02.487Z,6.71
2023-02-11T08:06:43.160Z,6.66
2023-02-11T08:09:18.495Z,6.48
2023-02-11T08:11:49.236Z,6.74
2023-02-11T08:14:31.282Z,6.61
2023-02-11T08:17:36.029Z,6.69
2023-02-11T08:20:07.390Z,6.84
2023-02-11T08:22:50.748Z,6.90
2023-02-11T08:25:23.076Z,6.82
2023-02-11T08:27:52.268Z,6.78
2023-02-11T08:32:51.557Z,6.95
2023-02-11T08:37:51.892Z,6.79
2023-02-11T08:42:16.289Z,7.00
2023-02-11T08:44:23.743Z,7.01
2023-02-11T08:47:04.614Z,7.05
2023-02-11T08:49:43.572Z,7.19
2023-02-11T08:52:14.745Z,7.23
2023-02-11T08:54:48.678Z,7.23
2023-02-11T09:00:23.241Z,7.28
2023-02-11T09:02:55.843Z,7.41
2023-02-11T09:05:58.941Z,7.60
2023-02-11T09:08:33.153Z,7.65
2023-02-11T09:11:17.413Z,7.58
2023-02-11T09:13:49.016Z,7.57
2023-02-11T09:19:13.486Z,7.72
2023-02-11T09:21:45.159Z,7.73
2023-02-11T09:31:16.690Z,7.96
2023-02-11T09:33:49.961Z,7.99
2023-02-11T09:36:25.348Z,8.26
2023-02-11T09:38:55.689Z,8.11
2023-02-11T09:41:50.511Z,7.96
2023-02-11T09:44:43.047Z,8.24
2023-02-11T09:48:59.870Z,8.34
2023-02-11T09:50:26.960Z,8.44
2023-02-11T09:53:20.488Z,8.49
2023-02-11T09:55:52.918Z,8.64
2023-02-11T09:58:31.740Z,8.66
2023-02-11T10:01:07.893Z,8.76
2023-02-11T10:03:53.265Z,8.86
2023-02-11T10:06:49.088Z,9.01
2023-02-11T10:09:54.493Z,8.71
2023-02-11T10:12:45.760Z,8.96
2023-02-11T10:15:30.090Z,9.04
2023-02-11T10:20:04.151Z,8.99
2023-02-11T10:21:46.628Z,9.06
2023-02-11T10:24:19.050Z,9.08
2023-02-11T10:26:58.208Z,8.95
2023-02-11T10:29:42.100Z,9.05
2023-02-11T10:32:28.643Z,9.03
2023-02-11T10:35:03.742Z,9.24
2023-02-11T10:37:33.274Z,9.20
2023-02-11T10:40:09.593Z,9.08
2023-02-11T10:42:56.155Z,8.99
2023-02-11T10:45:34.191Z,9.12
2023-02-11T10:48:16.443Z,8.98
2023-02-11T10:50:53.925Z,9.18
2023-02-11T10:53:24.453Z,9.14
2023-02-11T10:55:57.306Z,9.08
2023-02-11T10:58:30.206Z,9.63
2023-02-11T11:01:10.219Z,9.48
2023-02-11T11:03:50.953Z,9.61
2023-02-11T11:06:44.179Z,9.63
2023-02-11T11:09:33.107Z,9.63
2023-02-11T11:12:30.695Z,9.73
2023-02-11T11:15:21.399Z,10.01
2023-02-11T11:17:50.520Z,9.78
2023-02-11T11:20:41.203Z,9.81
2023-02-11T11:24:52.909Z,9.82
2023-02-11T11:26:21.699Z,9.88
2023-02-11T11:29:12.692Z,10.01
2023-02-11T11:31:57.322Z,10.01
2023-02-11T11:34:34.115Z,9.61
2023-02-11T11:37:21.676Z,9.61
2023-02-11T11:40:01.642Z,9.81
2023-02-11T11:42:37.540Z,9.71
2023-02-11T11:45:27.079Z,9.83
2023-02-11T11:48:06.763Z,9.87
2023-02-11T11:50:40.563Z,9.77
2023-02-11T11:53:19.033Z,9.54
2023-02-11T11:55:59.558Z,9.72
2023-02-11T11:58:35.849Z,9.85
2023-02-11T12:01:51.667Z,9.76
2023-02-11T12:04:43.079Z,9.78
2023-02-11T12:07:44.171Z,9.84
2023-02-11T12:10:38.135Z,9.79
2023-02-11T12:13:24.847Z,9.63
2023-02-11T12:16:11.116Z,9.65
2023-02-11T12:19:11.176Z,9.80
2023-02-11T12:21:50.733Z,9.66
2023-02-11T12:24:40.331Z,9.73
2023-02-11T12:27:25.132Z,10.04
2023-02-11T12:30:17.897Z,10.04
2023-02-11T12:33:17.195Z,10.36
2023-02-11T12:36:09.697Z,10.02
2023-02-11T12:38:54.776Z,9.91
2023-02-11T12:42:01.917Z,10.13
2023-02-11T12:45:09.985Z,10.05
2023-02-11T12:48:02.025Z,10.29
2023-02-11T12:50:46.241Z,10.54
2023-02-11T12:53:48.094Z,10.74
2023-02-11T12:56:25.614Z,10.87
2023-02-11T12:59:06.498Z,10.89
2023-02-11T13:01:45.404Z,10.94
2023-02-11T13:04:22.102Z,10.70
2023-02-11T13:07:09.196Z,10.78
2023-02-11T13:09:45.545Z,10.42
2023-02-11T13:12:36.059Z,10.44
2023-02-11T13:15:17.965Z,10.50
2023-02-11T13:18:07.381Z,10.73
2023-02-11T13:20:55.458Z,10.72
2023-02-11T13:23:35.624Z,10.78
2023-02-11T13:26:14.144Z,10.80
2023-02-11T13:28:52.883Z,10.56
2023-02-11T13:31:21.269Z,10.50
2023-02-11T13:33:54.096Z,10.52
2023-02-11T13:36:41.787Z,10.57
2023-02-11T13:39:45.988Z,10.54
2023-02-11T13:42:37.318Z,10.52
2023-02-11T13:48:28.601Z,10.47
2023-02-11T13:51:03.154Z,10.09
2023-02-11T13:53:54.079Z,10.22
2023-02-11T13:56:31.536Z,9.98
2023-02-11T13:59:33.028Z,10.07
2023-02-11T14:02:42.629Z,10.07
2023-02-11T14:05:52.264Z,9.93
2023-02-11T14:08:46.380Z,10.06
2023-02-11T14:11:52.784Z,10.06
2023-02-11T14:14:33.540Z,9.87
2023-02-11T14:17:30.958Z,10.15
2023-02-11T14:20:07.008Z,10.12
2023-02-11T14:22:53.890Z,9.97
2023-02-11T14:25:32.202Z,9.91
2023-02-11T14:28:11.275Z,10.01
2023-02-11T14:31:01.943Z,9.99
2023-02-11T14:34:04.465Z,9.98
2023-02-11T14:37:00.772Z,9.86
2023-02-11T14:41:30.391Z,9.61
2023-02-11T14:42:48.889Z,9.70
2023-02-11T14:45:28.289Z,9.75
2023-02-11T14:48:04.611Z,9.86
2023-02-11T14:50:38.460Z,9.69
2023-02-11T14:53:09.983Z,9.89
2023-02-11T14:55:48.605Z,9.92
2023-02-11T14:58:20.126Z,9.92
2023-02-11T15:01:01.101Z,9.93
2023-02-11T15:03:35.487Z,9.69
2023-02-11T15:06:19.034Z,9.89
2023-02-11T15:08:52.790Z,9.60
2023-02-11T15:11:32.038Z,9.81
2023-02-11T15:14:10.295Z,9.75
2023-02-11T15:17:00.225Z,9.59
2023-02-11T15:19:34.363Z,9.76
2023-02-11T15:22:06.848Z,9.77
2023-02-11T15:24:36.207Z,9.88
2023-02-11T15:27:12.918Z,9.82
2023-02-11T15:29:45.405Z,10.02
2023-02-11T15:32:22.193Z,9.85
2023-02-11T15:34:55.390Z,9.70
2023-02-11T15:38:00.636Z,9.56
2023-02-11T15:40:31.335Z,9.42
2023-02-11T15:43:03.631Z,9.58
2023-02-11T15:45:36.773Z,9.41
2023-02-11T15:48:21.278Z,9.60
2023-02-11T15:50:56.895Z,9.35
2023-02-11T15:53:32.944Z,9.54
2023-02-11T15:56:12.799Z,9.41
2023-02-11T15:58:53.245Z,9.33
2023-02-11T16:01:36.113Z,9.20
2023-02-11T16:04:14.980Z,9.20
2023-02-11T16:06:52.436Z,9.09
2023-02-11T16:09:37.739Z,9.23
2023-02-11T16:12:22.365Z,9.17
2023-02-11T16:14:50.471Z,8.98
2023-02-11T16:17:27.673Z,8.94
2023-02-11T16:20:01.903Z,8.96
2023-02-11T16:22:38.231Z,8.85
2023-02-11T16:25:13.144Z,8.97
2023-02-11T16:28:15.122Z,8.99
2023-02-11T16:30:56.452Z,8.78
2023-02-11T16:33:27.500Z,8.85
2023-02-11T16:36:02.060Z,8.75
2023-02-11T16:38:41.656Z,8.78
2023-02-11T16:41:11.843Z,8.58
2023-02-11T16:43:47.771Z,8.74
2023-02-11T16:46:36.875Z,8.75
2023-02-11T16:49:12.983Z,8.72
2023-02-11T16:51:43.209Z,8.62
2023-02-11T16:54:20.499Z,8.68
2023-02-11T17:00:32.574Z,8.53
2023-02-11T17:03:05.053Z,8.58
2023-02-11T17:05:49.402Z,8.50
2023-02-11T17:08:44.530Z,8.49
2023-02-11T17:11:25.694Z,8.47
2023-02-11T17:13:56.941Z,8.57
2023-02-11T17:16:36.724Z,8.38
2023-02-11T17:19:14.156Z,8.42
2023-02-11T17:21:52.741Z,8.43
2023-02-11T17:24:23.905Z,8.39
2023-02-11T17:26:54.770Z,8.28
2023-02-11T17:29:27.813Z,8.38
2023-02-11T17:32:01.017Z,8.33
2023-02-11T17:34:32.425Z,8.13
2023-02-11T17:37:10.991Z,8.04
2023-02-11T17:39:49.226Z,8.12
2023-02-11T17:42:22.500Z,7.97
2023-02-11T17:44:55.612Z,8.16
2023-02-11T17:47:28.756Z,8.02
2023-02-11T17:49:58.089Z,8.11
2023-02-11T17:52:39.915Z,7.96
2023-02-11T17:55:13.788Z,7.95
2023-02-11T17:57:43.986Z,8.02
2023-02-11T18:00:18.592Z,7.98
2023-02-11T18:02:51.314Z,7.94
2023-02-11T18:05:21.845Z,8.00
2023-02-11T18:07:56.422Z,7.99
2023-02-11T18:10:36.196Z,7.90
2023-02-11T18:13:16.036Z,7.93
2023-02-11T18:15:47.678Z,7.88
2023-02-11T18:18:27.272Z,7.74
2023-02-11T18:21:22.663Z,7.83
2023-02-11T18:25:28.664Z,7.62
2023-02-11T18:26:46.321Z,7.64
2023-02-11T18:29:14.567Z,7.56
2023-02-11T18:31:52.908Z,7.62
2023-02-11T18:34:21.215Z,7.58
2023-02-11T18:36:49.945Z,7.55
2023-02-11T18:39:20.069Z,7.46
2023-02-11T18:41:54.657Z,7.45
2023-02-11T18:44:24.793Z,7.31
2023-02-11T18:46:56.199Z,7.28
2023-02-11T18:49:26.218Z,7.31
2023-02-11T18:51:58.841Z,7.24
2023-02-11T18:54:29.517Z,7.36
2023-02-11T18:56:59.433Z,7.25
2023-02-11T18:59:31.860Z,7.20
2023-02-11T19:02:11.028Z,7.38
2023-02-11T19:04:47.217Z,7.42
2023-02-11T19:07:39.988Z,7.38
2023-02-11T19:10:14.299Z,7.44
2023-02-11T19:13:12.989Z,7.25
2023-02-11T19:15:49.285Z,7.14
2023-02-11T19:18:19.925Z,7.16
2023-02-11T19:20:50.019Z,6.93
2023-02-11T19:23:24.939Z,6.88
2023-02-11T19:25:57.469Z,6.70
2023-02-11T19:28:43.807Z,6.74
2023-02-11T19:31:17.379Z,6.57
2023-02-11T19:33:47.737Z,6.45
2023-02-11T19:36:18.556Z,6.59
2023-02-11T19:38:47.994Z,6.49
2023-02-11T19:41:19.510Z,6.42
2023-02-11T19:44:01.052Z,6.31
2023-02-11T19:46:57.857Z,6.10
2023-02-11T19:49:26.125Z,6.03
2023-02-11T19:51:58.626Z,5.98
2023-02-11T19:54:30.987Z,5.84
2023-02-11T19:57:05.391Z,5.73
2023-02-11T19:59:46.466Z,5.76
2023-02-11T20:02:16.615Z,5.63
2023-02-11T20:04:59.261Z,5.64
2023-02-11T20:07:32.114Z,5.43
2023-02-11T20:10:16.838Z,5.43
2023-02-11T20:12:56.665Z,5.33
2023-02-11T20:15:34.464Z,5.43
2023-02-11T20:18:05.724Z,5.43
2023-02-11T20:20:33.731Z,5.11
2023-02-11T20:23:03.730Z,5.14
2023-02-11T20:25:40.953Z,5.20
2023-02-11T20:28:09.171Z,5.17
2023-02-11T20:31:11.044Z,4.93
2023-02-11T20:33:45.877Z,5.07
2023-02-11T20:36:17.744Z,4.97
2023-02-11T20:38:50.541Z,4.91
2023-02-11T20:41:23.395Z,4.65
2023-02-11T20:44:00.954Z,4.65
2023-02-11T20:46:35.681Z,4.69
2023-02-11T20:49:05.822Z,4.72
2023-02-11T20:51:35.764Z,4.63
2023-02-11T20:54:08.433Z,4.57
2023-02-11T20:56:38.214Z,4.62
2023-02-11T20:59:07.418Z,4.54
2023-02-11T21:01:40.787Z,4.40
2023-02-11T21:04:14.052Z,4.39
2023-02-11T21:06:57.007Z,4.42
2023-02-11T21:09:34.655Z,4.58
2023-02-11T21:12:19.325Z,4.58
2023-02-11T21:14:51.039Z,4.73
2023-02-11T21:17:25.214Z,4.91
2023-02-11T21:19:58.446Z,4.75
2023-02-11T21:22:26.760Z,5.05
2023-02-11T21:24:54.785Z,5.13
2023-02-11T21:27:25.369Z,5.26
2023-02-11T21:29:54.811Z,5.17
2023-02-11T21:32:26.402Z,5.22
2023-02-11T21:35:00.624Z,5.26
2023-02-11T21:37:49.852Z,5.40
2023-02-11T21:40:30.032Z,5.40
2023-02-11T21:43:00.575Z,5.45
2023-02-11T21:45:32.809Z,5.59
2023-02-11T21:48:06.199Z,5.50
2023-02-11T21:50:46.116Z,5.63
2023-02-11T21:53:19.724Z,5.67
2023-02-11T21:56:01.565Z,5.55
2023-02-11T21:58:30.111Z,5.60
2023-02-11T22:00:59.840Z,5.66
2023-02-11T22:03:31.436Z,5.72
2023-02-11T22:05:59.601Z,5.69
2023-02-11T22:08:32.421Z,5.64
2023-02-11T22:11:26.519Z,5.61
2023-02-11T22:13:56.402Z,5.76
2023-02-11T22:16:27.250Z,5.68
2023-02-11T22:19:02.450Z,5.70
2023-02-11T22:21:46.436Z,5.54
2023-02-11T22:24:18.620Z,5.65
2023-02-11T22:26:48.255Z,5.74
2023-02-11T22:29:34.153Z,5.76
2023-02-11T22:32:17.466Z,5.57
2023-02-11T22:34:53.656Z,5.76
2023-02-11T22:37:22.149Z,5.76
2023-02-11T22:39:54.542Z,5.68
2023-02-11T22:42:31.571Z,5.78
2023-02-11T22:45:10.257Z,5.70
2023-02-11T22:47:41.716Z,5.77
2023-02-11T22:50:16.561Z,5.73
2023-02-11T22:52:45.858Z,5.86
2023-02-11T22:55:15.657Z,5.76
2023-02-11T22:57:48.873Z,5.85
2023-02-11T23:00:18.393Z,5.92
2023-02-11T23:02:50.635Z,5.91
2023-02-11T23:05:31.360Z,5.91
2023-02-11T23:08:09.752Z,5.88
2023-02-11T23:10:50.524Z,5.89
2023-02-11T23:13:19.860Z,5.88
2023-02-11T23:15:50.604Z,5.73
2023-02-11T23:18:24.445Z,5.82
2023-02-11T23:20:56.464Z,5.73
2023-02-11T23:23:29.172Z,5.64
2023-02-11T23:26:03.895Z,5.67
2023-02-11T23:28:32.116Z,5.75
2023-02-11T23:31:00.246Z,5.76
2023-02-11T23:33:28.418Z,5.73
2023-02-11T23:36:01.682Z,5.62
2023-02-11T23:38:32.316Z,5.71
2023-02-11T23:41:50.195Z,5.68
2023-02-11T23:44:43.775Z,5.61
2023-02-11T23:47:12.777Z,5.70
2023-02-11T23:49:45.770Z,5.47
2023-02-11T23:52:19.975Z,5.68
2023-02-11T23:54:48.345Z,5.53
2023-02-11T23:57:16.730Z,5.64
